Time;durP1;ratioP1;P1;durP2;ratioP2;P2;SDS_P1;SDS_P2;PMS_P1;PMS_P2;Temp;Humidity;BMP_temperature;BMP_pressure;BME280_temperature;BME280_humidity;BME280_pressure;Samples;Min_cycle;Max_cycle;Signal;HPM_P1;HPM_P2
2022/07/11 00:01:56;;;;;;;5.75;1.52;;;;;;;13.27;74.52;96725.88;1701688;82;21021;-81
2022/07/11 00:04:22;;;;;;;4.80;1.47;;;;;;;13.20;73.89;96722.73;1695267;82;21023;-81
2022/07/11 00:06:48;;;;;;;4.33;1.47;;;;;;;13.19;73.88;96726.34;1715161;82;21314;-81
2022/07/11 00:09:14;;;;;;;2.65;1.20;;;;;;;13.18;73.80;96726.54;1696075;84;21058;-81
2022/07/11 00:11:39;;;;;;;3.67;1.52;;;;;;;13.16;73.53;96727.17;1714334;82;21000;-84
2022/07/11 00:14:06;;;;;;;7.05;1.50;;;;;;;13.16;73.70;96723.25;1702817;83;21456;-82
2022/07/11 00:16:31;;;;;;;7.25;1.77;;;;;;;13.21;73.71;96726.16;1702799;84;20959;-82
2022/07/11 00:18:57;;;;;;;5.10;2.42;;;;;;;13.18;73.66;96723.43;1702543;83;21371;-82
2022/07/11 00:21:23;;;;;;;6.42;1.45;;;;;;;13.20;73.61;96720.62;1702611;84;20995;-81
2022/07/11 00:23:49;;;;;;;3.08;1.52;;;;;;;13.17;73.60;96723.06;1702641;83;21012;-84
2022/07/11 00:26:14;;;;;;;6.55;2.20;;;;;;;13.16;73.92;96729.28;1687285;83;20982;-84
2022/07/11 00:28:40;;;;;;;4.10;1.70;;;;;;;13.17;73.88;96732.70;1677861;83;20998;-84
2022/07/11 00:31:08;;;;;;;4.72;1.70;;;;;;;13.18;73.87;96732.56;1700361;83;21026;-82
2022/07/11 00:33:33;;;;;;;3.40;1.82;;;;;;;13.20;74.03;96728.45;1702789;84;21050;-83
2022/07/11 00:36:01;;;;;;;3.65;1.70;;;;;;;13.20;73.84;96734.48;1702370;83;21293;-81
2022/07/11 00:38:26;;;;;;;3.02;1.55;;;;;;;13.17;73.63;96736.11;1702788;84;21344;-81
2022/07/11 00:40:52;;;;;;;5.53;1.52;;;;;;;13.16;73.72;96739.71;1702786;83;21050;-83
2022/07/11 00:43:19;;;;;;;4.95;1.57;;;;;;;13.13;74.24;96741.91;1722837;83;21423;-83
2022/07/11 00:45:49;;;;;;;3.33;1.40;;;;;;;13.11;74.27;96743.89;1686257;83;20995;-83
2022/07/11 00:48:15;;;;;;;3.92;1.40;;;;;;;13.06;74.57;96738.44;1697148;83;21393;-83
2022/07/11 00:50:41;;;;;;;4.70;1.60;;;;;;;13.03;74.50;96740.94;1686059;83;20983;-81
2022/07/11 00:53:06;;;;;;;4.65;1.82;;;;;;;13.00;74.82;96733.96;1700208;83;21007;-81
2022/07/11 00:55:32;;;;;;;3.10;1.42;;;;;;;13.02;75.14;96738.02;1694872;83;20971;-81
2022/07/11 00:57:58;;;;;;;5.83;1.82;;;;;;;13.04;74.93;96743.05;1690929;83;21060;-83
2022/07/11 01:00:23;;;;;;;4.70;1.70;;;;;;;13.06;75.21;96744.47;1689321;83;20939;-84
2022/07/11 01:02:49;;;;;;;4.47;2.17;;;;;;;13.05;75.02;96741.55;1693014;83;21465;-83
2022/07/11 01:05:16;;;;;;;4.03;2.00;;;;;;;13.03;75.35;96742.24;1696108;83;21122;-82
2022/07/11 01:07:42;;;;;;;5.75;1.60;;;;;;;12.99;75.13;96740.98;1674599;84;21537;-83
2022/07/11 01:10:08;;;;;;;4.45;1.80;;;;;;;12.97;75.48;96740.36;1680372;83;21038;-83
2022/07/11 01:12:33;;;;;;;7.33;2.65;;;;;;;12.97;75.72;96741.67;1700970;83;21086;-83
2022/07/11 01:15:02;;;;;;;7.92;3.20;;;;;;;12.93;76.23;96745.66;1697604;83;21067;-83
2022/07/11 01:17:29;;;;;;;4.15;2.40;;;;;;;12.92;76.15;96740.13;1705915;83;20999;-81
2022/07/11 01:19:54;;;;;;;4.28;2.50;;;;;;;12.87;76.31;96745.11;1708910;83;21054;-81
2022/07/11 01:22:23;;;;;;;5.60;2.10;;;;;;;12.84;76.31;96742.84;1691933;83;21138;-81
2022/07/11 01:24:49;;;;;;;5.50;2.30;;;;;;;12.82;76.88;96752.16;1675221;83;20993;-82
2022/07/11 01:27:15;;;;;;;6.55;1.75;;;;;;;12.78;76.76;96742.30;1672794;83;21371;-82
2022/07/11 01:29:41;;;;;;;5.55;2.08;;;;;;;12.78;77.07;96740.50;1689508;83;20952;-82
2022/07/11 01:32:07;;;;;;;4.60;1.90;;;;;;;12.76;77.06;96737.77;1693778;83;21054;-82
2022/07/11 01:34:34;;;;;;;4.20;1.80;;;;;;;12.77;76.97;96731.06;1678802;84;21058;-82
2022/07/11 01:37:00;;;;;;;5.30;1.85;;;;;;;12.79;77.05;96729.58;1677783;84;21045;-83
2022/07/11 01:39:29;;;;;;;4.65;1.80;;;;;;;12.78;77.21;96730.57;1688055;84;21458;-81
2022/07/11 01:41:53;;;;;;;4.25;2.00;;;;;;;12.78;77.58;96733.17;1702524;83;21099;-83
2022/07/11 01:44:19;;;;;;;4.33;1.87;;;;;;;12.77;77.66;96730.26;1676971;83;21051;-82
2022/07/11 01:46:45;;;;;;;4.15;1.77;;;;;;;12.76;77.51;96733.86;1682575;83;20987;-83
2022/07/11 01:49:10;;;;;;;4.00;2.25;;;;;;;12.76;77.55;96728.64;1696760;84;20943;-84
2022/07/11 01:51:36;;;;;;;3.90;1.90;;;;;;;12.78;77.85;96729.27;1644451;86;21066;-83
2022/07/11 01:54:02;;;;;;;3.55;1.90;;;;;;;12.76;77.24;96727.34;1645242;87;20943;-83
2022/07/11 01:56:29;;;;;;;5.15;1.75;;;;;;;12.78;77.51;96727.96;1624675;86;21109;-82
2022/07/11 01:58:55;;;;;;;3.87;2.00;;;;;;;12.77;77.39;96723.24;1674972;83;20994;-83
2022/07/11 02:01:21;;;;;;;5.45;2.52;;;;;;;12.74;77.37;96711.08;1673731;83;20991;-82
2022/07/11 02:03:46;;;;;;;4.25;1.75;;;;;;;12.75;77.79;96714.00;1674555;83;21376;-83
2022/07/11 02:06:13;;;;;;;4.10;1.77;;;;;;;12.77;78.07;96716.72;1609420;87;21382;-81
2022/07/11 02:08:39;;;;;;;3.40;1.60;;;;;;;12.81;78.09;96710.63;1649553;86;20972;-81
2022/07/11 02:11:05;;;;;;;3.60;2.05;;;;;;;12.84;77.90;96708.45;1643338;85;21066;-80
2022/07/11 02:13:31;;;;;;;4.50;1.60;;;;;;;12.82;78.60;96709.14;1675660;85;21497;-82
2022/07/11 02:15:57;;;;;;;5.58;2.25;;;;;;;12.78;78.15;96707.91;1671208;85;20979;-82
2022/07/11 02:18:22;;;;;;;2.40;1.70;;;;;;;12.76;78.37;96709.90;1660287;85;20971;-81
2022/07/11 02:20:51;;;;;;;4.62;2.40;;;;;;;12.77;78.50;96713.31;1658183;85;20946;-82
2022/07/11 02:23:18;;;;;;;6.67;2.30;;;;;;;12.75;78.48;96716.61;1711325;83;21479;-81
2022/07/11 02:25:44;;;;;;;3.45;1.98;;;;;;;12.76;78.78;96719.02;1666820;86;20978;-81
2022/07/11 02:28:10;;;;;;;3.72;2.08;;;;;;;12.78;78.48;96715.73;1700714;83;20966;-81
2022/07/11 02:30:37;;;;;;;4.30;2.22;;;;;;;12.82;78.66;96717.45;1678484;83;21002;-80
2022/07/11 02:33:04;;;;;;;6.20;2.47;;;;;;;12.79;78.17;96716.53;1679454;84;21313;-81
2022/07/11 02:35:31;;;;;;;4.30;2.10;;;;;;;12.76;78.24;96718.22;1630382;86;20989;-81
2022/07/11 02:37:56;;;;;;;3.90;2.25;;;;;;;12.75;78.54;96716.61;1707776;84;20927;-81
2022/07/11 02:40:22;;;;;;;5.10;2.02;;;;;;;12.77;78.60;96719.33;1682211;83;21329;-83
2022/07/11 02:42:49;;;;;;;4.22;2.10;;;;;;;12.80;78.99;96718.95;1689064;84;21021;-83
2022/07/11 02:45:15;;;;;;;4.72;2.52;;;;;;;12.82;78.71;96722.67;1697091;83;20990;-82
2022/07/11 02:47:42;;;;;;;5.35;2.10;;;;;;;12.79;78.30;96726.97;1691306;83;20915;-83
2022/07/11 02:50:11;;;;;;;5.08;2.27;;;;;;;12.78;78.74;96729.27;1662946;85;21014;-83
2022/07/11 02:52:37;;;;;;;7.37;2.20;;;;;;;12.80;78.79;96724.67;1684134;85;21400;-82
2022/07/11 02:55:03;;;;;;;4.85;2.00;;;;;;;12.81;78.76;96729.69;1663885;85;21015;-82
2022/07/11 02:57:29;;;;;;;3.52;1.65;;;;;;;12.80;79.33;96727.27;1671349;83;21377;-81
2022/07/11 02:59:54;;;;;;;5.50;1.98;;;;;;;12.80;79.66;96732.48;1677740;84;20989;-81
2022/07/11 03:02:20;;;;;;;5.03;1.98;;;;;;;12.80;79.47;96735.09;1683179;83;21090;-81
2022/07/11 03:04:46;;;;;;;4.25;1.45;;;;;;;12.75;79.72;96731.75;1680216;83;21010;-82
2022/07/11 03:07:12;;;;;;;3.87;1.57;;;;;;;12.76;79.72;96729.95;1709251;84;20953;-82
2022/07/11 03:09:37;;;;;;;2.83;1.77;;;;;;;12.81;80.24;96732.80;1700978;83;21302;-83
2022/07/11 03:12:04;;;;;;;3.75;2.05;;;;;;;12.83;80.66;96731.61;1706625;84;20998;-83
2022/07/11 03:14:30;;;;;;;7.60;1.95;;;;;;;12.81;79.81;96732.80;1691628;83;20991;-83
2022/07/11 03:16:56;;;;;;;4.40;1.60;;;;;;;12.76;79.43;96727.34;1672523;84;20931;-83
2022/07/11 03:19:22;;;;;;;5.42;1.30;;;;;;;12.72;79.71;96726.11;1688860;83;21015;-83
2022/07/11 03:21:48;;;;;;;4.22;1.57;;;;;;;12.75;80.38;96729.14;1671340;83;21014;-83
2022/07/11 03:24:13;;;;;;;3.75;1.72;;;;;;;12.79;80.05;96726.97;1672140;84;20975;-81
2022/07/11 03:26:39;;;;;;;3.80;1.70;;;;;;;12.79;79.68;96725.16;1681827;83;20947;-81
2022/07/11 03:29:07;;;;;;;3.60;1.92;;;;;;;12.83;79.67;96728.20;1695231;83;21434;-82
2022/07/11 03:31:32;;;;;;;3.92;1.90;;;;;;;12.85;79.63;96724.91;1675543;83;21096;-82
2022/07/11 03:33:59;;;;;;;4.97;2.20;;;;;;;12.82;79.54;96729.20;1680432;83;20976;-81
2022/07/11 03:36:24;;;;;;;3.75;1.87;;;;;;;12.82;79.60;96729.20;1648340;85;21337;-82
2022/07/11 03:38:50;;;;;;;3.87;1.52;;;;;;;12.82;80.01;96730.00;1643717;85;21014;-81
2022/07/11 03:41:16;;;;;;;4.90;1.37;;;;;;;12.85;80.57;96727.51;1686083;83;20999;-82
2022/07/11 03:43:41;;;;;;;3.72;1.37;;;;;;;12.88;80.68;96727.16;1690815;84;21450;-82
2022/07/11 03:46:07;;;;;;;3.58;1.35;;;;;;;12.91;80.88;96728.89;1672305;83;21367;-83
2022/07/11 03:48:33;;;;;;;3.70;1.37;;;;;;;12.93;81.28;96724.79;1680002;83;20952;-83
2022/07/11 03:50:58;;;;;;;3.05;1.80;;;;;;;12.94;81.19;96729.01;1648940;85;21038;-83
2022/07/11 03:53:24;;;;;;;2.87;1.67;;;;;;;12.93;81.26;96731.31;1662351;85;21353;-82
2022/07/11 03:55:50;;;;;;;6.90;1.90;;;;;;;12.89;80.46;96736.59;1633183;87;21313;-82
2022/07/11 03:58:16;;;;;;;5.97;1.90;;;;;;;12.91;80.64;96737.22;1681022;83;20919;-83
2022/07/11 04:00:41;;;;;;;4.25;1.82;;;;;;;12.96;80.42;96737.95;1700353;83;20939;-83
2022/07/11 04:03:07;;;;;;;5.17;2.22;;;;;;;13.02;80.43;96741.13;1684751;83;21409;-81
2022/07/11 04:05:33;;;;;;;5.67;2.00;;;;;;;13.05;80.11;96744.16;1671441;83;20983;-82
2022/07/11 04:07:59;;;;;;;4.85;1.80;;;;;;;13.04;79.49;96742.55;1653474;86;20974;-83
2022/07/11 04:10:24;;;;;;;3.98;1.65;;;;;;;13.05;79.62;96740.75;1633948;87;21082;-83
2022/07/11 04:12:50;;;;;;;4.17;2.10;;;;;;;13.08;79.73;96738.56;1625991;85;21046;-83
2022/07/11 04:15:16;;;;;;;7.22;1.62;;;;;;;13.12;79.54;96741.59;1633550;86;20944;-83
2022/07/11 04:17:43;;;;;;;5.40;1.87;;;;;;;13.16;79.13;96742.33;1644960;86;21069;-83
2022/07/11 04:20:10;;;;;;;4.72;1.70;;;;;;;13.25;78.85;96735.71;1697659;83;20999;-82
2022/07/11 04:22:36;;;;;;;6.55;1.87;;;;;;;13.28;78.35;96729.61;1697453;83;21083;-82
2022/07/11 04:25:02;;;;;;;5.15;2.15;;;;;;;13.30;78.14;96731.52;1697496;83;21399;-81
2022/07/11 04:27:29;;;;;;;5.72;2.35;;;;;;;13.33;78.28;96738.16;1697446;83;21012;-81
2022/07/11 04:29:55;;;;;;;8.15;2.90;;;;;;;13.37;78.17;96731.59;1697601;84;20986;-82
2022/07/11 04:32:20;;;;;;;4.15;2.00;;;;;;;13.41;78.51;96729.70;1697513;84;21003;-82
2022/07/11 04:34:46;;;;;;;6.00;1.72;;;;;;;13.42;78.24;96727.40;1697294;83;21357;-81
2022/07/11 04:37:12;;;;;;;4.72;2.30;;;;;;;13.41;77.41;96728.90;1681507;84;20967;-81
2022/07/11 04:39:38;;;;;;;4.37;2.42;;;;;;;13.44;77.58;96733.73;1677198;83;21027;-81
2022/07/11 04:42:06;;;;;;;6.97;2.10;;;;;;;13.47;77.54;96732.84;1682395;83;21054;-81
2022/07/11 04:44:33;;;;;;;3.45;1.90;;;;;;;13.50;77.18;96739.02;1674396;83;21038;-81
2022/07/11 04:46:58;;;;;;;4.42;2.00;;;;;;;13.51;77.07;96738.52;1697336;83;21075;-81
2022/07/11 04:49:24;;;;;;;3.80;1.82;;;;;;;13.53;76.87;96737.02;1681999;84;21075;-82
2022/07/11 04:51:50;;;;;;;5.22;1.72;;;;;;;13.57;77.31;96740.84;1689821;83;21132;-82
2022/07/11 04:54:16;;;;;;;6.58;2.50;;;;;;;13.60;76.70;96741.27;1679830;84;21042;-82
2022/07/11 04:56:42;;;;;;;5.35;2.00;;;;;;;13.64;76.38;96743.80;1670334;83;20968;-82
2022/07/11 04:59:07;;;;;;;5.03;1.72;;;;;;;13.72;76.50;96739.73;1657451;85;21367;-83
2022/07/11 05:01:34;;;;;;;6.20;2.10;;;;;;;13.78;76.46;96748.59;1647152;85;20943;-83
2022/07/11 05:04:00;;;;;;;5.17;2.40;;;;;;;13.85;75.44;96742.93;1650959;85;21387;-83
2022/07/11 05:06:26;;;;;;;6.67;2.37;;;;;;;13.86;75.62;96748.95;1682324;83;20953;-82
2022/07/11 05:08:54;;;;;;;4.40;2.20;;;;;;;13.89;75.61;96745.95;1686717;84;21007;-83
2022/07/11 05:11:20;;;;;;;6.65;1.80;;;;;;;13.95;75.90;96747.28;1688993;84;21019;-83
2022/07/11 05:13:46;;;;;;;6.28;2.37;;;;;;;14.01;75.13;96751.75;1689194;84;21436;-83
2022/07/11 05:16:12;;;;;;;5.58;2.05;;;;;;;14.08;75.44;96749.96;1702833;83;21031;-83
2022/07/11 05:18:39;;;;;;;5.15;1.80;;;;;;;14.13;73.96;96751.98;1702731;83;21368;-83
2022/07/11 05:21:05;;;;;;;5.65;1.80;;;;;;;14.20;74.16;96758.06;1690755;83;20969;-83
2022/07/11 05:23:31;;;;;;;3.52;1.80;;;;;;;14.29;74.45;96756.88;1695475;84;21407;-83
2022/07/11 05:25:56;;;;;;;4.53;1.87;;;;;;;14.41;74.05;96754.00;1692063;83;21066;-83
2022/07/11 05:28:22;;;;;;;5.60;2.30;;;;;;;14.49;73.59;96751.77;1674809;84;21023;-83
2022/07/11 05:30:48;;;;;;;6.53;1.67;;;;;;;14.51;73.21;96761.52;1682562;83;21348;-83
2022/07/11 05:33:14;;;;;;;3.83;1.87;;;;;;;14.58;72.17;96760.22;1686489;84;20971;-83
2022/07/11 05:35:39;;;;;;;8.43;2.47;;;;;;;14.70;72.85;96759.45;1699671;83;21324;-82
2022/07/11 05:38:05;;;;;;;5.35;1.70;;;;;;;14.81;73.25;96759.88;1702834;84;21047;-82
2022/07/11 05:40:31;;;;;;;6.40;2.10;;;;;;;14.84;72.36;96763.41;1702776;83;20963;-82
2022/07/11 05:42:56;;;;;;;6.65;1.80;;;;;;;14.87;72.17;96763.80;1702790;83;21054;-83
2022/07/11 05:45:22;;;;;;;4.12;1.35;;;;;;;14.96;72.65;96761.79;1702774;83;21027;-84
2022/07/11 05:47:48;;;;;;;4.78;2.10;;;;;;;15.05;72.29;96766.34;1683857;83;21038;-85
2022/07/11 05:50:13;;;;;;;5.70;1.92;;;;;;;15.14;72.15;96756.80;1682325;84;21025;-83
2022/07/11 05:52:39;;;;;;;5.15;1.90;;;;;;;15.14;71.51;96765.16;1702964;83;20991;-81
2022/07/11 05:55:06;;;;;;;6.58;1.90;;;;;;;15.09;71.30;96761.80;1682599;83;21488;-81
2022/07/11 05:57:32;;;;;;;5.03;1.80;;;;;;;15.00;70.28;96763.02;1702866;83;21351;-81
2022/07/11 05:59:57;;;;;;;4.78;1.72;;;;;;;14.91;70.68;96769.44;1696363;84;20947;-81
2022/07/11 06:02:23;;;;;;;5.72;1.90;;;;;;;14.86;70.21;96767.43;1689625;83;20983;-83
2022/07/11 06:04:49;;;;;;;7.85;2.17;;;;;;;14.80;70.67;96768.70;1702370;83;20927;-83
2022/07/11 06:08:40;;;;;;;5.55;2.20;;;;;;;14.73;70.37;96770.52;1700038;84;21397;-83
2022/07/11 06:09:42;;;;;;;6.60;2.35;;;;;;;14.64;70.68;96769.41;1698391;83;22016;-81
2022/07/11 06:12:08;;;;;;;3.55;1.67;;;;;;;14.59;70.69;96774.41;1702457;83;20979;-81
2022/07/11 06:14:34;;;;;;;6.42;2.20;;;;;;;14.52;70.73;96784.05;1686003;83;21167;-82
2022/07/11 06:16:59;;;;;;;4.00;1.67;;;;;;;14.47;71.67;96782.50;1672895;83;21003;-82
2022/07/11 06:19:25;;;;;;;5.20;1.55;;;;;;;14.42;70.28;96777.84;1684867;83;21418;-82
2022/07/11 06:21:52;;;;;;;5.85;1.77;;;;;;;14.38;70.17;96777.13;1695882;84;21023;-82
2022/07/11 06:24:19;;;;;;;4.62;1.87;;;;;;;14.36;70.31;96777.83;1671337;83;21066;-82
2022/07/11 06:26:44;;;;;;;5.28;2.02;;;;;;;14.40;70.99;96774.62;1669445;83;21402;-82
2022/07/11 06:29:10;;;;;;;7.40;1.80;;;;;;;14.48;71.52;96773.69;1674557;83;21001;-82
2022/07/11 06:31:36;;;;;;;7.85;1.75;;;;;;;14.56;72.00;96776.61;1693633;84;21392;-83
2022/07/11 06:34:02;;;;;;;5.35;1.62;;;;;;;14.56;71.37;96776.61;1697351;83;21035;-83
2022/07/11 06:36:27;;;;;;;4.00;1.90;;;;;;;14.52;70.66;96780.12;1678848;83;20999;-84
2022/07/11 06:38:53;;;;;;;5.75;1.95;;;;;;;14.50;71.15;96779.52;1696126;83;21002;-83
2022/07/11 06:41:19;;;;;;;5.40;1.85;;;;;;;14.45;70.43;96775.86;1697371;83;21086;-84
2022/07/11 06:43:47;;;;;;;5.30;2.72;;;;;;;14.46;70.90;96781.39;1694649;83;21005;-81
2022/07/11 06:46:12;;;;;;;5.80;1.50;;;;;;;14.49;70.77;96781.83;1675821;84;21414;-81
2022/07/11 06:48:38;;;;;;;6.47;1.70;;;;;;;14.57;70.09;96780.84;1697493;83;21027;-80
2022/07/11 06:51:04;;;;;;;3.02;1.50;;;;;;;14.56;70.65;96781.84;1697420;83;21118;-81
2022/07/11 06:53:31;;;;;;;4.05;1.62;;;;;;;14.62;71.01;96783.16;1679191;83;21378;-80
2022/07/11 06:55:57;;;;;;;5.78;1.95;;;;;;;14.69;72.05;96787.11;1693842;83;20963;-81
2022/07/11 06:58:31;;;;;;;5.15;1.95;;;;;;;14.75;71.27;96786.81;1696698;84;20972;-84
2022/07/11 07:01:05;;;;;;;4.30;1.52;;;;;;;14.79;69.95;96784.10;1697623;83;20944;-84
2022/07/11 07:03:32;;;;;;;5.95;1.55;;;;;;;14.88;69.71;96780.31;1697361;84;20998;-83
2022/07/11 07:05:58;;;;;;;4.55;1.87;;;;;;;15.05;70.09;96778.12;1694869;83;20965;-84
2022/07/11 07:08:25;;;;;;;6.90;3.37;;;;;;;15.16;69.32;96781.46;1697668;83;21481;-83
2022/07/11 07:10:51;;;;;;;5.97;1.77;;;;;;;15.24;69.17;96783.36;1697572;84;20991;-84
2022/07/11 07:13:18;;;;;;;5.03;1.55;;;;;;;15.29;68.88;96779.66;1692756;83;21122;-83
2022/07/11 07:15:43;;;;;;;5.92;2.77;;;;;;;15.36;69.75;96780.95;1703380;83;21059;-82
2022/07/11 07:18:11;;;;;;;4.78;1.87;;;;;;;15.42;69.29;96780.64;1698572;83;21042;-83
2022/07/11 07:20:38;;;;;;;4.62;1.45;;;;;;;15.40;67.11;96772.98;1688884;84;20986;-84
2022/07/11 07:23:03;;;;;;;3.90;1.32;;;;;;;15.36;68.73;96779.64;1700900;83;21063;-82
2022/07/11 07:25:29;;;;;;;3.42;2.10;;;;;;;15.43;68.61;96778.32;1675142;84;21094;-84
2022/07/11 07:27:55;;;;;;;6.70;2.05;;;;;;;15.49;68.50;96780.95;1676663;83;21449;-83
2022/07/11 07:30:21;;;;;;;3.47;1.70;;;;;;;15.60;68.44;96777.73;1702988;83;20994;-83
2022/07/11 07:32:46;;;;;;;4.72;1.57;;;;;;;15.73;68.71;96775.61;1702983;83;20965;-82
2022/07/11 07:35:12;;;;;;;3.90;2.08;;;;;;;15.80;66.87;96772.48;1683510;83;21355;-81
2022/07/11 07:37:38;;;;;;;5.78;1.60;;;;;;;15.86;67.21;96771.66;1703198;83;21011;-81
2022/07/11 07:40:05;;;;;;;4.78;1.50;;;;;;;16.01;67.48;96772.73;1702944;83;20971;-81
2022/07/11 07:42:30;;;;;;;4.47;1.57;;;;;;;16.05;67.00;96773.92;1703195;83;20950;-82
2022/07/11 07:44:56;;;;;;;4.95;1.50;;;;;;;16.09;66.78;96777.73;1683273;83;21448;-82
2022/07/11 07:47:23;;;;;;;4.47;1.40;;;;;;;16.17;66.48;96774.09;1688946;84;21043;-81
2022/07/11 07:49:48;;;;;;;5.25;1.55;;;;;;;16.19;66.11;96774.69;1697691;83;20990;-83
2022/07/11 07:52:14;;;;;;;3.87;1.50;;;;;;;16.18;65.97;96776.50;1703663;84;20975;-83
2022/07/11 07:54:40;;;;;;;6.30;2.00;;;;;;;16.17;65.50;96779.34;1703169;83;21372;-83
2022/07/11 07:57:06;;;;;;;3.90;1.35;;;;;;;16.17;64.88;96775.41;1650377;84;20952;-83
2022/07/11 07:59:31;;;;;;;3.42;1.45;;;;;;;16.17;64.70;96771.47;1703256;84;20980;-84
2022/07/11 08:01:57;;;;;;;4.25;1.57;;;;;;;16.25;64.09;96778.29;1703198;84;21070;-83
2022/07/11 08:04:23;;;;;;;5.12;1.55;;;;;;;16.28;65.17;96772.66;1703192;83;20962;-82
2022/07/11 08:06:48;;;;;;;5.20;1.55;;;;;;;16.49;65.01;96765.28;1683288;83;21374;-84
2022/07/11 08:09:15;;;;;;;3.12;1.20;;;;;;;16.70;63.85;96758.94;1702960;83;21398;-83
2022/07/11 08:11:41;;;;;;;3.70;1.55;;;;;;;16.81;64.05;96762.72;1703520;84;21024;-84
2022/07/11 08:14:07;;;;;;;4.72;1.35;;;;;;;16.72;63.33;96754.80;1683399;84;20995;-83
2022/07/11 08:16:33;;;;;;;5.37;1.45;;;;;;;16.53;62.93;96753.06;1701042;84;20971;-85
2022/07/11 08:19:01;;;;;;;4.62;1.30;;;;;;;16.35;62.71;96752.44;1694011;84;21409;-84
2022/07/11 08:21:28;;;;;;;5.60;1.77;;;;;;;16.25;63.29;96749.45;1678226;83;21035;-83
2022/07/11 08:23:55;;;;;;;3.70;1.20;;;;;;;16.13;63.55;96740.94;1703310;84;21127;-84
2022/07/11 08:26:21;;;;;;;4.42;1.30;;;;;;;16.04;64.83;96746.09;1676711;83;20976;-83
2022/07/11 08:28:46;;;;;;;5.22;1.10;;;;;;;15.95;64.78;96740.80;1690187;83;20980;-83
2022/07/11 08:31:13;;;;;;;6.00;1.47;;;;;;;15.86;65.64;96735.48;1722060;83;21066;-84
2022/07/11 08:33:38;;;;;;;4.28;1.60;;;;;;;15.71;65.13;96742.77;1675211;84;21346;-83
2022/07/11 08:36:06;;;;;;;3.98;1.70;;;;;;;15.52;67.09;96742.57;1695742;83;21007;-84
2022/07/11 08:38:32;;;;;;;4.67;1.57;;;;;;;15.34;67.37;96746.31;1703266;84;21374;-81
2022/07/11 08:40:57;;;;;;;3.83;1.42;;;;;;;15.15;67.87;96772.80;1703394;84;21034;-81
2022/07/11 08:43:29;;;;;;;3.27;1.40;;;;;;;14.89;68.36;96790.57;1703156;83;21082;-83
2022/07/11 08:45:55;;;;;;;2.47;1.15;;;;;;;14.60;69.06;96804.78;1703420;83;21012;-81
2022/07/11 08:48:22;;;;;;;3.77;1.30;;;;;;;14.26;69.63;96813.97;1703423;84;20960;-81
2022/07/11 08:50:49;;;;;;;4.08;1.62;;;;;;;14.00;70.35;96818.56;1689985;83;21506;-81
2022/07/11 08:53:15;;;;;;;4.83;1.42;;;;;;;13.83;71.27;96828.52;1676913;83;21140;-83
2022/07/11 08:55:41;;;;;;;4.62;1.10;;;;;;;13.65;71.64;96827.66;1703461;83;21500;-81
2022/07/11 08:58:09;;;;;;;5.90;1.07;;;;;;;13.55;72.10;96826.39;1703431;84;20990;-82
2022/07/11 09:00:36;;;;;;;2.85;0.93;;;;;;;13.55;73.02;96813.34;1695620;83;21002;-83
2022/07/11 09:03:05;;;;;;;2.50;1.00;;;;;;;13.56;72.97;96806.62;1675091;83;20975;-83
2022/07/11 09:05:31;;;;;;;3.22;0.88;;;;;;;13.66;73.94;96796.62;1696600;83;21372;-82
2022/07/11 09:07:57;;;;;;;3.15;0.85;;;;;;;13.87;74.18;96791.05;1675159;83;21031;-82
2022/07/11 09:10:23;;;;;;;1.52;0.90;;;;;;;14.04;74.68;96785.83;1692957;83;21414;-82
2022/07/11 09:13:03;;;;;;;2.00;0.78;;;;;;;14.08;73.66;96781.81;1683286;84;21039;-81
2022/07/11 09:15:38;;;;;;;4.90;1.00;;;;;;;14.19;74.81;96782.59;1702349;83;21117;-82
2022/07/11 09:18:06;;;;;;;3.52;1.00;;;;;;;14.23;72.63;96772.54;1699573;84;21015;-83
2022/07/11 09:26:34;;;;;;;2.50;1.10;;;;;;;14.97;75.79;96773.39;1685479;83;21356;-82
2022/07/11 09:29:12;;;;;;;4.20;1.20;;;;;;;15.36;74.70;96763.94;1702666;83;20996;-82
2022/07/11 09:31:40;;;;;;;3.72;1.05;;;;;;;15.64;75.40;96756.39;1686436;83;21059;-83
2022/07/11 09:34:11;;;;;;;3.87;1.22;;;;;;;15.87;74.22;96760.66;1683281;83;21062;-82
2022/07/11 09:36:43;;;;;;;3.80;1.17;;;;;;;16.07;72.52;96754.05;1703449;83;21023;-81
2022/07/11 09:39:23;;;;;;;3.83;1.35;;;;;;;16.20;73.20;96753.50;1703629;84;21350;-81
2022/07/11 09:41:51;;;;;;;2.83;1.30;;;;;;;16.30;72.13;96750.95;1685892;83;21010;-82
2022/07/11 09:44:28;;;;;;;5.12;1.15;;;;;;;16.47;72.80;96740.28;1683433;84;21035;-82
2022/07/11 09:46:54;;;;;;;7.12;1.42;;;;;;;16.65;72.28;96736.45;1695946;83;20979;-82
2022/07/11 09:49:32;;;;;;;4.67;1.20;;;;;;;16.84;72.80;96732.11;1675250;84;21042;-84
2022/07/11 09:52:15;;;;;;;3.40;1.10;;;;;;;17.03;71.52;96730.36;1678115;83;20975;-82
2022/07/11 09:55:00;;;;;;;4.12;1.00;;;;;;;17.21;72.54;96725.67;1675368;84;20979;-82
2022/07/11 09:57:34;;;;;;;2.92;0.98;;;;;;;17.30;69.68;96719.95;1677276;83;21385;-82
2022/07/11 10:00:04;;;;;;;5.20;1.15;;;;;;;17.39;69.25;96727.83;1675279;84;21046;-82
2022/07/11 10:02:30;;;;;;;5.00;1.07;;;;;;;17.42;67.05;96716.11;1700038;83;21033;-81
2022/07/11 10:04:58;;;;;;;2.20;1.02;;;;;;;17.20;67.19;96720.93;1695147;84;21047;-81
2022/07/11 10:07:24;;;;;;;2.58;0.88;;;;;;;17.28;68.02;96714.11;1703072;84;21040;-81
2022/07/11 10:09:50;;;;;;;3.72;0.88;;;;;;;17.40;66.97;96721.55;1675192;82;21346;-82
2022/07/11 10:12:16;;;;;;;4.50;1.05;;;;;;;17.45;66.54;96705.67;1682309;83;20959;-82
2022/07/11 10:14:42;;;;;;;5.78;1.52;;;;;;;17.56;66.31;96710.19;1654515;84;21431;-82
2022/07/11 10:17:47;;;;;;;4.00;0.90;;;;;;;17.67;65.65;96707.66;1684435;84;20997;-82
2022/07/11 10:20:27;;;;;;;5.92;0.90;;;;;;;17.72;65.21;96702.28;1684415;83;21415;-82
2022/07/11 10:23:12;;;;;;;4.87;1.40;;;;;;;17.84;64.57;96705.28;1676583;83;20985;-82
2022/07/11 10:26:10;;;;;;;3.17;0.72;;;;;;;18.03;64.34;96705.27;1669590;84;21351;-82
2022/07/11 10:28:43;;;;;;;4.22;0.85;;;;;;;18.05;63.16;96709.28;1669438;83;21002;-81
2022/07/11 10:31:23;;;;;;;2.72;0.90;;;;;;;18.22;62.53;96705.05;1693820;83;21047;-81
2022/07/11 10:34:10;;;;;;;4.85;0.80;;;;;;;18.24;61.81;96716.16;1681529;83;21011;-82
2022/07/11 10:36:43;;;;;;;5.37;1.25;;;;;;;17.97;61.62;96719.59;1697538;83;20971;-81
2022/07/11 10:39:29;;;;;;;3.98;0.85;;;;;;;17.86;60.99;96715.58;1681846;84;20984;-81
2022/07/11 10:41:59;;;;;;;3.62;0.95;;;;;;;17.85;58.69;96713.97;1697443;84;20987;-81
2022/07/11 10:44:28;;;;;;;3.15;0.80;;;;;;;17.99;58.06;96715.44;1697425;83;21426;-81
2022/07/11 10:46:54;;;;;;;2.62;0.70;;;;;;;18.12;58.10;96719.73;1679380;84;20995;-81
2022/07/11 10:49:39;;;;;;;1.67;0.50;;;;;;;18.35;58.34;96710.63;1697516;84;21012;-82
2022/07/11 10:52:07;;;;;;;2.47;0.82;;;;;;;18.46;57.56;96713.03;1679342;83;21035;-83
2022/07/11 10:54:44;;;;;;;3.20;0.62;;;;;;;18.68;56.04;96710.20;1679119;84;20991;-83
2022/07/11 10:57:29;;;;;;;2.30;0.68;;;;;;;18.89;56.85;96706.28;1678929;84;21104;-83
2022/07/11 11:00:08;;;;;;;3.67;1.30;;;;;;;19.06;56.30;96708.53;1697551;83;20971;-83
2022/07/11 11:03:06;;;;;;;5.50;1.15;;;;;;;19.27;55.60;96698.47;1697529;84;21035;-83
2022/07/11 11:05:54;;;;;;;2.55;1.02;;;;;;;19.38;51.20;96691.09;1687886;84;21042;-83
2022/07/11 11:08:40;;;;;;;2.33;0.60;;;;;;;18.99;54.88;96715.72;1673186;83;20994;-82
2022/07/11 11:11:23;;;;;;;4.37;1.00;;;;;;;18.67;52.98;96730.17;1675842;83;21425;-81
2022/07/11 11:14:18;;;;;;;3.08;0.88;;;;;;;18.28;54.30;96738.35;1670898;83;21028;-81
2022/07/11 11:16:45;;;;;;;4.10;1.27;;;;;;;17.85;54.05;96769.17;1688934;83;21071;-82
2022/07/11 11:19:53;;;;;;;3.70;1.20;;;;;;;17.22;57.03;96803.43;1697922;84;20972;-81
2022/07/11 11:22:21;;;;;;;3.05;1.00;;;;;;;16.59;59.91;96815.16;1685483;83;21012;-80
2022/07/11 11:24:50;;;;;;;3.02;0.88;;;;;;;15.84;62.86;96831.33;1684823;84;21027;-82
2022/07/11 11:27:22;;;;;;;2.95;0.95;;;;;;;15.37;65.66;96824.45;1691073;83;21023;-83
2022/07/11 11:29:53;;;;;;;5.22;1.27;;;;;;;15.01;65.97;96843.94;1709519;83;21031;-82
2022/07/11 11:32:21;;;;;;;3.72;1.40;;;;;;;14.76;67.64;96842.05;1702839;83;20980;-82
2022/07/11 11:34:46;;;;;;;2.90;1.20;;;;;;;14.51;68.19;96842.58;1669591;84;20991;-82
2022/07/11 11:37:14;;;;;;;5.75;1.50;;;;;;;14.35;69.28;96842.38;1688449;83;21437;-82
2022/07/11 11:39:40;;;;;;;4.70;1.98;;;;;;;14.31;70.10;96831.98;1647193;84;21007;-82
2022/07/11 11:42:12;;;;;;;2.95;1.40;;;;;;;14.30;70.34;96827.75;1697479;84;21101;-82
2022/07/11 11:44:56;;;;;;;4.28;1.20;;;;;;;14.37;71.95;96819.45;1703623;83;21032;-82